sensor_id;sensor_type;location;lat;lon;timestamp;P1;durP1;ratioP1;P2;durP2;ratioP2
11008;SDS011;5557;51.670;7.788;2022-12-18T00:02:27;46.95;;;30.38;;
11008;SDS011;5557;51.670;7.788;2022-12-18T00:04:54;53.35;;;32.00;;
11008;SDS011;5557;51.670;7.788;2022-12-18T00:07:21;51.45;;;31.77;;
11008;SDS011;5557;51.670;7.788;2022-12-18T00:09:48;53.03;;;29.58;;
11008;SDS011;5557;51.670;7.788;2022-12-18T00:12:17;47.22;;;27.67;;
11008;SDS011;5557;51.670;7.788;2022-12-18T00:14:49;45.00;;;28.63;;
11008;SDS011;5557;51.670;7.788;2022-12-18T00:17:16;48.63;;;29.65;;
11008;SDS011;5557;51.670;7.788;2022-12-18T00:19:43;49.92;;;31.35;;
11008;SDS011;5557;51.670;7.788;2022-12-18T00:22:12;52.58;;;32.30;;
11008;SDS011;5557;51.670;7.788;2022-12-18T00:24:38;47.35;;;29.25;;
11008;SDS011;5557;51.670;7.788;2022-12-18T00:27:05;46.17;;;29.48;;
11008;SDS011;5557;51.670;7.788;2022-12-18T00:29:32;43.05;;;29.75;;
11008;SDS011;5557;51.670;7.788;2022-12-18T00:32:00;42.50;;;30.27;;
11008;SDS011;5557;51.670;7.788;2022-12-18T00:34:27;47.55;;;29.55;;
11008;SDS011;5557;51.670;7.788;2022-12-18T00:36:54;43.63;;;28.95;;
11008;SDS011;5557;51.670;7.788;2022-12-18T00:39:21;43.10;;;29.70;;
11008;SDS011;5557;51.670;7.788;2022-12-18T00:41:48;51.97;;;32.13;;
11008;SDS011;5557;51.670;7.788;2022-12-18T00:44:34;48.78;;;29.60;;
11008;SDS011;5557;51.670;7.788;2022-12-18T00:47:01;51.15;;;31.95;;
11008;SDS011;5557;51.670;7.788;2022-12-18T00:49:29;52.03;;;31.98;;
11008;SDS011;5557;51.670;7.788;2022-12-18T00:51:56;48.40;;;30.63;;
11008;SDS011;5557;51.670;7.788;2022-12-18T00:54:23;44.70;;;30.10;;
11008;SDS011;5557;51.670;7.788;2022-12-18T00:56:50;46.53;;;29.40;;
11008;SDS011;5557;51.670;7.788;2022-12-18T00:59:19;41.42;;;30.08;;
11008;SDS011;5557;51.670;7.788;2022-12-18T01:01:46;43.55;;;28.38;;
11008;SDS011;5557;51.670;7.788;2022-12-18T01:04:14;47.90;;;30.60;;
11008;SDS011;5557;51.670;7.788;2022-12-18T01:06:41;46.45;;;29.40;;
11008;SDS011;5557;51.670;7.788;2022-12-18T01:09:08;46.40;;;29.90;;
11008;SDS011;5557;51.670;7.788;2022-12-18T01:11:35;45.88;;;29.17;;
11008;SDS011;5557;51.670;7.788;2022-12-18T01:14:03;51.92;;;30.58;;
11008;SDS011;5557;51.670;7.788;2022-12-18T01:16:32;43.88;;;30.17;;
11008;SDS011;5557;51.670;7.788;2022-12-18T01:18:59;42.65;;;28.95;;
11008;SDS011;5557;51.670;7.788;2022-12-18T01:21:31;45.42;;;30.50;;
11008;SDS011;5557;51.670;7.788;2022-12-18T01:23:58;41.78;;;26.98;;
11008;SDS011;5557;51.670;7.788;2022-12-18T01:26:25;47.30;;;30.13;;
11008;SDS011;5557;51.670;7.788;2022-12-18T01:28:57;44.38;;;30.27;;
11008;SDS011;5557;51.670;7.788;2022-12-18T01:31:25;56.08;;;31.98;;
11008;SDS011;5557;51.670;7.788;2022-12-18T01:33:55;50.42;;;35.00;;
11008;SDS011;5557;51.670;7.788;2022-12-18T01:36:24;49.08;;;31.70;;
11008;SDS011;5557;51.670;7.788;2022-12-18T01:38:53;43.80;;;29.67;;
11008;SDS011;5557;51.670;7.788;2022-12-18T01:41:23;41.75;;;29.10;;
11008;SDS011;5557;51.670;7.788;2022-12-18T01:43:53;44.15;;;29.17;;
11008;SDS011;5557;51.670;7.788;2022-12-18T01:46:23;43.67;;;28.85;;
11008;SDS011;5557;51.670;7.788;2022-12-18T01:49:00;44.33;;;29.17;;
11008;SDS011;5557;51.670;7.788;2022-12-18T01:51:28;43.55;;;29.52;;
11008;SDS011;5557;51.670;7.788;2022-12-18T01:53:57;46.03;;;28.45;;
11008;SDS011;5557;51.670;7.788;2022-12-18T01:56:25;41.55;;;27.25;;
11008;SDS011;5557;51.670;7.788;2022-12-18T01:58:54;40.25;;;26.85;;
11008;SDS011;5557;51.670;7.788;2022-12-18T02:01:29;47.65;;;30.40;;
11008;SDS011;5557;51.670;7.788;2022-12-18T02:04:16;42.88;;;28.45;;
11008;SDS011;5557;51.670;7.788;2022-12-18T02:06:45;48.30;;;28.00;;
11008;SDS011;5557;51.670;7.788;2022-12-18T02:09:19;40.92;;;27.63;;
11008;SDS011;5557;51.670;7.788;2022-12-18T02:14:58;48.63;;;29.15;;
11008;SDS011;5557;51.670;7.788;2022-12-18T02:17:52;51.97;;;31.27;;
11008;SDS011;5557;51.670;7.788;2022-12-18T02:26:59;45.85;;;30.83;;
11008;SDS011;5557;51.670;7.788;2022-12-18T02:29:38;42.67;;;28.08;;
11008;SDS011;5557;51.670;7.788;2022-12-18T02:32:09;43.78;;;26.15;;
11008;SDS011;5557;51.670;7.788;2022-12-18T02:34:45;45.72;;;27.95;;
11008;SDS011;5557;51.670;7.788;2022-12-18T02:37:15;39.50;;;24.73;;
11008;SDS011;5557;51.670;7.788;2022-12-18T02:39:46;46.10;;;26.75;;
11008;SDS011;5557;51.670;7.788;2022-12-18T02:42:15;40.85;;;26.70;;
11008;SDS011;5557;51.670;7.788;2022-12-18T02:44:45;38.30;;;26.15;;
11008;SDS011;5557;51.670;7.788;2022-12-18T02:47:15;33.83;;;24.50;;
11008;SDS011;5557;51.670;7.788;2022-12-18T02:49:52;38.70;;;28.40;;
11008;SDS011;5557;51.670;7.788;2022-12-18T03:01:58;38.85;;;26.13;;
11008;SDS011;5557;51.670;7.788;2022-12-18T03:04:38;40.95;;;25.42;;
11008;SDS011;5557;51.670;7.788;2022-12-18T03:07:36;35.92;;;23.70;;
11008;SDS011;5557;51.670;7.788;2022-12-18T03:10:08;35.50;;;24.88;;
11008;SDS011;5557;51.670;7.788;2022-12-18T03:12:43;43.08;;;23.05;;
11008;SDS011;5557;51.670;7.788;2022-12-18T03:15:25;30.00;;;23.15;;
11008;SDS011;5557;51.670;7.788;2022-12-18T03:18:02;34.63;;;24.70;;
11008;SDS011;5557;51.670;7.788;2022-12-18T03:20:44;35.13;;;23.00;;
11008;SDS011;5557;51.670;7.788;2022-12-18T03:23:15;34.85;;;23.50;;
11008;SDS011;5557;51.670;7.788;2022-12-18T03:25:52;38.22;;;27.27;;
11008;SDS011;5557;51.670;7.788;2022-12-18T03:28:30;32.83;;;24.60;;
11008;SDS011;5557;51.670;7.788;2022-12-18T03:30:59;34.70;;;24.25;;
11008;SDS011;5557;51.670;7.788;2022-12-18T03:33:32;36.13;;;24.38;;
11008;SDS011;5557;51.670;7.788;2022-12-18T03:36:06;28.25;;;22.63;;
11008;SDS011;5557;51.670;7.788;2022-12-18T03:38:34;31.75;;;22.45;;
11008;SDS011;5557;51.670;7.788;2022-12-18T03:41:18;37.15;;;25.60;;
11008;SDS011;5557;51.670;7.788;2022-12-18T03:44:07;32.13;;;23.20;;
11008;SDS011;5557;51.670;7.788;2022-12-18T03:46:57;32.15;;;22.48;;
11008;SDS011;5557;51.670;7.788;2022-12-18T03:52:38;27.27;;;21.23;;
11008;SDS011;5557;51.670;7.788;2022-12-18T03:55:12;41.75;;;26.52;;
11008;SDS011;5557;51.670;7.788;2022-12-18T03:57:39;35.22;;;23.55;;
11008;SDS011;5557;51.670;7.788;2022-12-18T04:00:10;32.60;;;22.70;;
11008;SDS011;5557;51.670;7.788;2022-12-18T04:02:40;26.33;;;20.85;;
11008;SDS011;5557;51.670;7.788;2022-12-18T04:05:12;37.75;;;20.58;;
11008;SDS011;5557;51.670;7.788;2022-12-18T04:07:40;33.33;;;22.23;;
11008;SDS011;5557;51.670;7.788;2022-12-18T04:10:08;27.48;;;19.33;;
11008;SDS011;5557;51.670;7.788;2022-12-18T04:12:39;33.50;;;22.98;;
11008;SDS011;5557;51.670;7.788;2022-12-18T04:15:07;31.15;;;20.75;;
11008;SDS011;5557;51.670;7.788;2022-12-18T04:17:37;33.38;;;21.25;;
11008;SDS011;5557;51.670;7.788;2022-12-18T04:20:05;32.15;;;19.95;;
11008;SDS011;5557;51.670;7.788;2022-12-18T04:22:32;29.20;;;20.73;;
11008;SDS011;5557;51.670;7.788;2022-12-18T04:24:59;29.48;;;20.98;;
11008;SDS011;5557;51.670;7.788;2022-12-18T04:27:28;32.00;;;19.80;;
11008;SDS011;5557;51.670;7.788;2022-12-18T04:29:55;28.27;;;20.90;;
11008;SDS011;5557;51.670;7.788;2022-12-18T04:32:22;24.90;;;18.45;;
11008;SDS011;5557;51.670;7.788;2022-12-18T04:34:49;25.75;;;19.50;;
11008;SDS011;5557;51.670;7.788;2022-12-18T04:37:16;25.77;;;18.80;;
11008;SDS011;5557;51.670;7.788;2022-12-18T04:39:44;28.58;;;19.85;;
11008;SDS011;5557;51.670;7.788;2022-12-18T04:42:11;25.75;;;19.38;;
11008;SDS011;5557;51.670;7.788;2022-12-18T04:44:38;31.05;;;19.75;;
11008;SDS011;5557;51.670;7.788;2022-12-18T04:47:06;25.65;;;19.92;;
11008;SDS011;5557;51.670;7.788;2022-12-18T04:49:33;26.67;;;19.08;;
11008;SDS011;5557;51.670;7.788;2022-12-18T04:52:00;22.27;;;18.73;;
11008;SDS011;5557;51.670;7.788;2022-12-18T04:54:27;25.95;;;20.27;;
11008;SDS011;5557;51.670;7.788;2022-12-18T04:56:54;24.85;;;17.60;;
11008;SDS011;5557;51.670;7.788;2022-12-18T04:59:22;22.85;;;16.80;;
11008;SDS011;5557;51.670;7.788;2022-12-18T05:01:49;24.15;;;16.92;;
11008;SDS011;5557;51.670;7.788;2022-12-18T05:04:17;29.02;;;19.58;;
11008;SDS011;5557;51.670;7.788;2022-12-18T05:06:45;22.70;;;17.20;;
11008;SDS011;5557;51.670;7.788;2022-12-18T05:09:12;16.83;;;14.85;;
11008;SDS011;5557;51.670;7.788;2022-12-18T05:11:40;20.33;;;16.90;;
11008;SDS011;5557;51.670;7.788;2022-12-18T05:14:07;24.38;;;17.95;;
11008;SDS011;5557;51.670;7.788;2022-12-18T05:16:34;27.77;;;16.73;;
11008;SDS011;5557;51.670;7.788;2022-12-18T05:19:01;20.45;;;15.52;;
11008;SDS011;5557;51.670;7.788;2022-12-18T05:21:30;19.83;;;15.25;;
11008;SDS011;5557;51.670;7.788;2022-12-18T05:23:57;20.77;;;15.95;;
11008;SDS011;5557;51.670;7.788;2022-12-18T05:26:24;19.88;;;15.52;;
11008;SDS011;5557;51.670;7.788;2022-12-18T05:28:51;20.65;;;15.93;;
11008;SDS011;5557;51.670;7.788;2022-12-18T05:31:18;23.70;;;16.92;;
11008;SDS011;5557;51.670;7.788;2022-12-18T05:33:45;19.65;;;15.73;;
11008;SDS011;5557;51.670;7.788;2022-12-18T05:36:12;21.83;;;15.70;;
11008;SDS011;5557;51.670;7.788;2022-12-18T05:38:39;20.92;;;16.85;;
11008;SDS011;5557;51.670;7.788;2022-12-18T05:41:07;23.52;;;15.50;;
11008;SDS011;5557;51.670;7.788;2022-12-18T05:43:36;19.63;;;14.88;;
11008;SDS011;5557;51.670;7.788;2022-12-18T05:46:05;18.15;;;14.88;;
11008;SDS011;5557;51.670;7.788;2022-12-18T05:48:34;18.08;;;15.93;;
11008;SDS011;5557;51.670;7.788;2022-12-18T05:51:05;23.60;;;18.25;;
11008;SDS011;5557;51.670;7.788;2022-12-18T05:53:35;27.92;;;20.35;;
11008;SDS011;5557;51.670;7.788;2022-12-18T05:56:04;26.58;;;20.48;;
11008;SDS011;5557;51.670;7.788;2022-12-18T05:58:33;21.63;;;17.70;;
11008;SDS011;5557;51.670;7.788;2022-12-18T06:01:33;26.95;;;17.20;;
11008;SDS011;5557;51.670;7.788;2022-12-18T06:03:53;21.92;;;18.83;;
11008;SDS011;5557;51.670;7.788;2022-12-18T06:06:22;25.20;;;19.60;;
11008;SDS011;5557;51.670;7.788;2022-12-18T06:08:52;22.05;;;18.75;;
11008;SDS011;5557;51.670;7.788;2022-12-18T06:11:21;22.60;;;18.90;;
11008;SDS011;5557;51.670;7.788;2022-12-18T06:13:51;18.60;;;14.68;;
11008;SDS011;5557;51.670;7.788;2022-12-18T06:16:24;18.52;;;14.80;;
11008;SDS011;5557;51.670;7.788;2022-12-18T06:18:53;20.13;;;15.05;;
11008;SDS011;5557;51.670;7.788;2022-12-18T06:21:28;18.15;;;15.80;;
11008;SDS011;5557;51.670;7.788;2022-12-18T06:23:57;16.95;;;15.15;;
11008;SDS011;5557;51.670;7.788;2022-12-18T06:26:24;15.45;;;13.85;;
11008;SDS011;5557;51.670;7.788;2022-12-18T06:28:53;18.05;;;14.10;;
11008;SDS011;5557;51.670;7.788;2022-12-18T06:31:21;16.90;;;13.77;;
11008;SDS011;5557;51.670;7.788;2022-12-18T06:33:48;17.17;;;13.98;;
11008;SDS011;5557;51.670;7.788;2022-12-18T06:36:15;17.10;;;13.63;;
11008;SDS011;5557;51.670;7.788;2022-12-18T06:38:43;16.38;;;13.65;;
11008;SDS011;5557;51.670;7.788;2022-12-18T06:41:11;19.77;;;14.80;;
11008;SDS011;5557;51.670;7.788;2022-12-18T06:43:40;16.85;;;13.75;;
11008;SDS011;5557;51.670;7.788;2022-12-18T06:46:08;16.13;;;14.43;;
11008;SDS011;5557;51.670;7.788;2022-12-18T06:48:35;19.25;;;14.50;;
11008;SDS011;5557;51.670;7.788;2022-12-18T06:51:02;16.40;;;13.43;;
11008;SDS011;5557;51.670;7.788;2022-12-18T06:53:29;17.08;;;11.60;;
11008;SDS011;5557;51.670;7.788;2022-12-18T06:56:00;15.02;;;13.40;;
11008;SDS011;5557;51.670;7.788;2022-12-18T06:58:34;18.52;;;15.70;;
11008;SDS011;5557;51.670;7.788;2022-12-18T07:01:02;19.45;;;16.05;;
11008;SDS011;5557;51.670;7.788;2022-12-18T07:03:30;17.65;;;15.00;;
11008;SDS011;5557;51.670;7.788;2022-12-18T07:05:57;18.15;;;14.95;;
11008;SDS011;5557;51.670;7.788;2022-12-18T07:08:24;19.50;;;14.95;;
11008;SDS011;5557;51.670;7.788;2022-12-18T07:10:51;13.23;;;11.93;;
11008;SDS011;5557;51.670;7.788;2022-12-18T07:13:21;14.27;;;12.93;;
11008;SDS011;5557;51.670;7.788;2022-12-18T07:15:49;17.20;;;14.80;;
11008;SDS011;5557;51.670;7.788;2022-12-18T07:18:16;19.02;;;14.25;;
11008;SDS011;5557;51.670;7.788;2022-12-18T07:20:42;20.98;;;16.58;;
11008;SDS011;5557;51.670;7.788;2022-12-18T07:23:11;21.52;;;17.27;;
11008;SDS011;5557;51.670;7.788;2022-12-18T07:25:38;29.83;;;19.17;;
11008;SDS011;5557;51.670;7.788;2022-12-18T07:28:06;20.08;;;17.30;;
11008;SDS011;5557;51.670;7.788;2022-12-18T07:30:38;22.35;;;18.17;;
11008;SDS011;5557;51.670;7.788;2022-12-18T07:33:05;22.85;;;19.55;;
11008;SDS011;5557;51.670;7.788;2022-12-18T07:35:32;20.02;;;16.60;;
11008;SDS011;5557;51.670;7.788;2022-12-18T07:38:02;21.67;;;15.45;;
11008;SDS011;5557;51.670;7.788;2022-12-18T07:40:29;20.33;;;15.93;;
11008;SDS011;5557;51.670;7.788;2022-12-18T07:42:56;22.73;;;16.30;;
11008;SDS011;5557;51.670;7.788;2022-12-18T07:45:23;22.17;;;16.98;;
11008;SDS011;5557;51.670;7.788;2022-12-18T07:47:50;24.17;;;18.38;;
11008;SDS011;5557;51.670;7.788;2022-12-18T07:50:18;21.08;;;17.40;;
11008;SDS011;5557;51.670;7.788;2022-12-18T07:52:45;22.40;;;17.57;;
11008;SDS011;5557;51.670;7.788;2022-12-18T07:55:12;23.93;;;19.53;;
11008;SDS011;5557;51.670;7.788;2022-12-18T07:57:39;25.33;;;20.47;;
11008;SDS011;5557;51.670;7.788;2022-12-18T08:00:18;21.73;;;17.90;;
11008;SDS011;5557;51.670;7.788;2022-12-18T08:02:46;22.20;;;17.90;;
11008;SDS011;5557;51.670;7.788;2022-12-18T08:05:14;17.30;;;15.53;;
11008;SDS011;5557;51.670;7.788;2022-12-18T08:07:41;19.80;;;16.40;;
11008;SDS011;5557;51.670;7.788;2022-12-18T08:10:08;19.83;;;16.30;;
11008;SDS011;5557;51.670;7.788;2022-12-18T08:12:35;18.60;;;15.93;;
11008;SDS011;5557;51.670;7.788;2022-12-18T08:15:02;32.90;;;22.20;;
11008;SDS011;5557;51.670;7.788;2022-12-18T08:17:30;22.27;;;18.67;;
11008;SDS011;5557;51.670;7.788;2022-12-18T08:19:57;25.97;;;23.37;;
11008;SDS011;5557;51.670;7.788;2022-12-18T08:22:24;17.73;;;15.43;;
11008;SDS011;5557;51.670;7.788;2022-12-18T08:24:51;17.33;;;14.90;;
11008;SDS011;5557;51.670;7.788;2022-12-18T08:27:18;22.07;;;16.07;;
11008;SDS011;5557;51.670;7.788;2022-12-18T08:29:55;17.90;;;15.33;;
11008;SDS011;5557;51.670;7.788;2022-12-18T08:32:22;18.10;;;15.50;;
11008;SDS011;5557;51.670;7.788;2022-12-18T08:34:50;15.77;;;14.27;;
11008;SDS011;5557;51.670;7.788;2022-12-18T08:37:17;17.33;;;15.60;;
11008;SDS011;5557;51.670;7.788;2022-12-18T08:39:44;18.20;;;16.30;;
11008;SDS011;5557;51.670;7.788;2022-12-18T08:42:11;15.53;;;13.93;;
11008;SDS011;5557;51.670;7.788;2022-12-18T08:44:57;14.80;;;13.17;;
11008;SDS011;5557;51.670;7.788;2022-12-18T08:47:24;16.50;;;14.17;;
11008;SDS011;5557;51.670;7.788;2022-12-18T08:49:52;16.40;;;14.60;;
11008;SDS011;5557;51.670;7.788;2022-12-18T08:52:19;16.70;;;13.67;;
11008;SDS011;5557;51.670;7.788;2022-12-18T08:54:46;20.50;;;16.40;;
11008;SDS011;5557;51.670;7.788;2022-12-18T08:57:13;15.80;;;14.30;;
11008;SDS011;5557;51.670;7.788;2022-12-18T08:59:40;14.20;;;12.90;;
11008;SDS011;5557;51.670;7.788;2022-12-18T09:02:08;20.17;;;15.53;;
11008;SDS011;5557;51.670;7.788;2022-12-18T09:04:37;19.07;;;16.83;;
11008;SDS011;5557;51.670;7.788;2022-12-18T09:07:04;22.13;;;19.90;;
11008;SDS011;5557;51.670;7.788;2022-12-18T09:09:31;24.97;;;22.37;;
11008;SDS011;5557;51.670;7.788;2022-12-18T09:11:58;23.10;;;20.70;;
11008;SDS011;5557;51.670;7.788;2022-12-18T09:14:24;25.60;;;22.30;;
11008;SDS011;5557;51.670;7.788;2022-12-18T09:16:52;23.30;;;20.43;;
11008;SDS011;5557;51.670;7.788;2022-12-18T09:19:19;25.80;;;20.83;;
11008;SDS011;5557;51.670;7.788;2022-12-18T09:21:45;25.40;;;21.70;;
11008;SDS011;5557;51.670;7.788;2022-12-18T09:24:13;25.70;;;21.07;;
11008;SDS011;5557;51.670;7.788;2022-12-18T09:26:41;20.13;;;17.77;;
11008;SDS011;5557;51.670;7.788;2022-12-18T09:29:12;21.50;;;19.20;;
11008;SDS011;5557;51.670;7.788;2022-12-18T09:31:40;21.40;;;19.30;;
11008;SDS011;5557;51.670;7.788;2022-12-18T09:34:07;22.13;;;19.57;;
11008;SDS011;5557;51.670;7.788;2022-12-18T09:36:34;20.10;;;18.30;;
11008;SDS011;5557;51.670;7.788;2022-12-18T09:39:02;20.17;;;17.83;;
11008;SDS011;5557;51.670;7.788;2022-12-18T09:44:34;15.83;;;14.33;;
11008;SDS011;5557;51.670;7.788;2022-12-18T09:47:12;15.67;;;14.00;;
11008;SDS011;5557;51.670;7.788;2022-12-18T09:49:48;15.80;;;14.20;;
11008;SDS011;5557;51.670;7.788;2022-12-18T09:52:24;17.07;;;15.30;;
11008;SDS011;5557;51.670;7.788;2022-12-18T09:55:14;31.93;;;22.80;;
11008;SDS011;5557;51.670;7.788;2022-12-18T09:57:59;23.50;;;19.00;;
11008;SDS011;5557;51.670;7.788;2022-12-18T10:00:32;24.50;;;20.77;;
11008;SDS011;5557;51.670;7.788;2022-12-18T10:03:00;19.17;;;17.17;;
11008;SDS011;5557;51.670;7.788;2022-12-18T10:14:00;18.60;;;15.87;;
11008;SDS011;5557;51.670;7.788;2022-12-18T10:19:55;17.10;;;15.30;;
11008;SDS011;5557;51.670;7.788;2022-12-18T10:25:12;26.50;;;15.50;;
11008;SDS011;5557;51.670;7.788;2022-12-18T10:27:51;20.53;;;16.13;;
11008;SDS011;5557;51.670;7.788;2022-12-18T10:30:24;19.40;;;17.13;;
11008;SDS011;5557;51.670;7.788;2022-12-18T10:32:52;22.77;;;17.87;;
11008;SDS011;5557;51.670;7.788;2022-12-18T10:35:22;19.13;;;16.40;;
11008;SDS011;5557;51.670;7.788;2022-12-18T10:40:31;17.83;;;15.67;;
11008;SDS011;5557;51.670;7.788;2022-12-18T10:43:10;14.97;;;13.40;;
11008;SDS011;5557;51.670;7.788;2022-12-18T10:45:39;16.97;;;15.37;;
11008;SDS011;5557;51.670;7.788;2022-12-18T10:48:18;15.00;;;13.67;;
11008;SDS011;5557;51.670;7.788;2022-12-18T10:50:48;17.93;;;16.13;;
11008;SDS011;5557;51.670;7.788;2022-12-18T10:53:38;17.90;;;16.00;;
11008;SDS011;5557;51.670;7.788;2022-12-18T10:56:08;15.33;;;13.83;;
11008;SDS011;5557;51.670;7.788;2022-12-18T10:58:36;16.40;;;14.70;;
11008;SDS011;5557;51.670;7.788;2022-12-18T11:01:10;21.13;;;16.03;;
11008;SDS011;5557;51.670;7.788;2022-12-18T11:03:40;14.50;;;13.00;;
11008;SDS011;5557;51.670;7.788;2022-12-18T11:06:12;13.50;;;12.07;;
11008;SDS011;5557;51.670;7.788;2022-12-18T11:08:41;12.20;;;11.23;;
11008;SDS011;5557;51.670;7.788;2022-12-18T11:11:15;11.90;;;10.67;;
11008;SDS011;5557;51.670;7.788;2022-12-18T11:14:06;11.43;;;10.53;;
11008;SDS011;5557;51.670;7.788;2022-12-18T11:16:44;13.90;;;12.70;;
11008;SDS011;5557;51.670;7.788;2022-12-18T11:19:39;13.63;;;12.43;;
11008;SDS011;5557;51.670;7.788;2022-12-18T11:22:20;11.77;;;10.87;;
11008;SDS011;5557;51.670;7.788;2022-12-18T11:25:35;11.73;;;10.50;;
11008;SDS011;5557;51.670;7.788;2022-12-18T11:28:00;12.03;;;10.93;;
11008;SDS011;5557;51.670;7.788;2022-12-18T11:30:31;11.33;;;10.53;;
11008;SDS011;5557;51.670;7.788;2022-12-18T11:33:11;12.33;;;11.40;;
11008;SDS011;5557;51.670;7.788;2022-12-18T11:35:51;11.60;;;10.50;;
11008;SDS011;5557;51.670;7.788;2022-12-18T11:38:26;10.93;;;10.13;;
11008;SDS011;5557;51.670;7.788;2022-12-18T11:41:00;13.27;;;12.10;;
11008;SDS011;5557;51.670;7.788;2022-12-18T11:43:50;11.80;;;10.80;;
11008;SDS011;5557;51.670;7.788;2022-12-18T11:46:26;11.57;;;10.67;;
11008;SDS011;5557;51.670;7.788;2022-12-18T11:49:07;10.30;;;9.30;;
11008;SDS011;5557;51.670;7.788;2022-12-18T11:52:06;10.67;;;9.80;;
11008;SDS011;5557;51.670;7.788;2022-12-18T11:54:58;10.77;;;9.83;;
11008;SDS011;5557;51.670;7.788;2022-12-18T11:57:45;10.00;;;9.27;;
11008;SDS011;5557;51.670;7.788;2022-12-18T12:00:31;11.90;;;10.63;;
11008;SDS011;5557;51.670;7.788;2022-12-18T12:09:35;12.63;;;11.47;;
11008;SDS011;5557;51.670;7.788;2022-12-18T12:13:20;11.43;;;10.37;;
11008;SDS011;5557;51.670;7.788;2022-12-18T12:15:43;11.67;;;10.57;;
11008;SDS011;5557;51.670;7.788;2022-12-18T12:21:40;11.73;;;10.73;;
11008;SDS011;5557;51.670;7.788;2022-12-18T12:24:19;10.50;;;9.60;;
11008;SDS011;5557;51.670;7.788;2022-12-18T12:27:14;12.43;;;10.53;;
11008;SDS011;5557;51.670;7.788;2022-12-18T12:30:21;11.60;;;10.60;;
11008;SDS011;5557;51.670;7.788;2022-12-18T12:38:51;12.07;;;10.97;;
11008;SDS011;5557;51.670;7.788;2022-12-18T12:41:30;12.70;;;11.67;;
11008;SDS011;5557;51.670;7.788;2022-12-18T12:44:26;12.83;;;11.73;;
11008;SDS011;5557;51.670;7.788;2022-12-18T12:47:02;11.73;;;10.70;;
11008;SDS011;5557;51.670;7.788;2022-12-18T12:49:41;14.53;;;12.03;;
11008;SDS011;5557;51.670;7.788;2022-12-18T12:55:00;28.10;;;17.97;;
11008;SDS011;5557;51.670;7.788;2022-12-18T12:57:39;24.10;;;16.90;;
11008;SDS011;5557;51.670;7.788;2022-12-18T13:00:11;27.93;;;19.43;;
11008;SDS011;5557;51.670;7.788;2022-12-18T13:02:48;26.97;;;20.23;;
11008;SDS011;5557;51.670;7.788;2022-12-18T13:05:58;21.40;;;18.10;;
11008;SDS011;5557;51.670;7.788;2022-12-18T13:08:52;25.63;;;19.80;;
11008;SDS011;5557;51.670;7.788;2022-12-18T13:14:37;18.00;;;16.10;;
11008;SDS011;5557;51.670;7.788;2022-12-18T13:20:05;13.50;;;12.07;;
11008;SDS011;5557;51.670;7.788;2022-12-18T13:22:48;12.93;;;11.73;;
11008;SDS011;5557;51.670;7.788;2022-12-18T13:34:31;12.57;;;11.53;;
11008;SDS011;5557;51.670;7.788;2022-12-18T13:37:35;14.17;;;12.80;;
11008;SDS011;5557;51.670;7.788;2022-12-18T13:43:32;13.57;;;12.20;;
11008;SDS011;5557;51.670;7.788;2022-12-18T13:49:21;15.17;;;13.50;;
11008;SDS011;5557;51.670;7.788;2022-12-18T13:51:53;13.03;;;11.43;;
11008;SDS011;5557;51.670;7.788;2022-12-18T13:54:40;13.97;;;11.90;;
11008;SDS011;5557;51.670;7.788;2022-12-18T13:59:59;14.07;;;12.60;;
11008;SDS011;5557;51.670;7.788;2022-12-18T14:02:54;17.23;;;14.00;;
11008;SDS011;5557;51.670;7.788;2022-12-18T14:05:23;38.37;;;21.90;;
11008;SDS011;5557;51.670;7.788;2022-12-18T14:07:51;17.20;;;13.60;;
11008;SDS011;5557;51.670;7.788;2022-12-18T14:10:20;12.53;;;11.53;;
11008;SDS011;5557;51.670;7.788;2022-12-18T14:13:08;13.73;;;12.10;;
11008;SDS011;5557;51.670;7.788;2022-12-18T14:15:41;25.70;;;17.80;;
11008;SDS011;5557;51.670;7.788;2022-12-18T14:18:26;30.00;;;21.63;;
11008;SDS011;5557;51.670;7.788;2022-12-18T14:21:18;35.27;;;23.70;;
11008;SDS011;5557;51.670;7.788;2022-12-18T14:23:57;42.57;;;28.20;;
11008;SDS011;5557;51.670;7.788;2022-12-18T14:26:31;29.33;;;18.03;;
11008;SDS011;5557;51.670;7.788;2022-12-18T14:29:00;20.90;;;17.57;;
11008;SDS011;5557;51.670;7.788;2022-12-18T14:31:46;16.20;;;14.60;;
11008;SDS011;5557;51.670;7.788;2022-12-18T14:34:44;16.63;;;14.87;;
11008;SDS011;5557;51.670;7.788;2022-12-18T14:37:16;15.30;;;13.70;;
11008;SDS011;5557;51.670;7.788;2022-12-18T14:39:52;33.63;;;24.27;;
11008;SDS011;5557;51.670;7.788;2022-12-18T14:42:20;25.20;;;20.40;;
11008;SDS011;5557;51.670;7.788;2022-12-18T14:44:47;14.47;;;12.80;;
11008;SDS011;5557;51.670;7.788;2022-12-18T14:47:34;16.50;;;15.10;;
11008;SDS011;5557;51.670;7.788;2022-12-18T14:50:01;13.77;;;12.47;;
11008;SDS011;5557;51.670;7.788;2022-12-18T14:52:29;14.27;;;12.97;;
11008;SDS011;5557;51.670;7.788;2022-12-18T14:54:58;13.23;;;12.13;;
11008;SDS011;5557;51.670;7.788;2022-12-18T14:57:28;13.53;;;12.17;;
11008;SDS011;5557;51.670;7.788;2022-12-18T15:00:05;13.33;;;12.00;;
11008;SDS011;5557;51.670;7.788;2022-12-18T15:02:34;14.57;;;13.13;;
11008;SDS011;5557;51.670;7.788;2022-12-18T15:05:25;15.00;;;13.60;;
11008;SDS011;5557;51.670;7.788;2022-12-18T15:07:58;17.90;;;16.10;;
11008;SDS011;5557;51.670;7.788;2022-12-18T15:10:30;15.47;;;13.90;;
11008;SDS011;5557;51.670;7.788;2022-12-18T15:18:13;14.83;;;13.50;;
11008;SDS011;5557;51.670;7.788;2022-12-18T15:20:48;15.27;;;13.60;;
11008;SDS011;5557;51.670;7.788;2022-12-18T15:23:35;11.37;;;10.40;;
11008;SDS011;5557;51.670;7.788;2022-12-18T15:26:15;13.10;;;11.90;;
11008;SDS011;5557;51.670;7.788;2022-12-18T15:28:54;12.67;;;11.77;;
11008;SDS011;5557;51.670;7.788;2022-12-18T15:31:30;16.67;;;14.97;;
11008;SDS011;5557;51.670;7.788;2022-12-18T15:34:01;12.10;;;11.23;;
11008;SDS011;5557;51.670;7.788;2022-12-18T15:36:39;18.00;;;16.30;;
11008;SDS011;5557;51.670;7.788;2022-12-18T15:39:09;13.03;;;11.83;;
11008;SDS011;5557;51.670;7.788;2022-12-18T15:41:39;25.43;;;21.27;;
11008;SDS011;5557;51.670;7.788;2022-12-18T15:47:04;17.93;;;15.80;;
11008;SDS011;5557;51.670;7.788;2022-12-18T15:49:36;36.77;;;31.13;;
11008;SDS011;5557;51.670;7.788;2022-12-18T15:52:04;15.67;;;14.17;;
11008;SDS011;5557;51.670;7.788;2022-12-18T15:54:31;9.07;;;8.37;;
11008;SDS011;5557;51.670;7.788;2022-12-18T15:57:17;11.13;;;10.33;;
11008;SDS011;5557;51.670;7.788;2022-12-18T15:59:56;9.47;;;8.77;;
11008;SDS011;5557;51.670;7.788;2022-12-18T16:02:25;10.07;;;9.10;;
11008;SDS011;5557;51.670;7.788;2022-12-18T16:04:55;18.10;;;16.33;;
11008;SDS011;5557;51.670;7.788;2022-12-18T16:07:24;11.63;;;10.70;;
11008;SDS011;5557;51.670;7.788;2022-12-18T16:09:56;10.03;;;9.20;;
11008;SDS011;5557;51.670;7.788;2022-12-18T16:12:27;8.70;;;8.20;;
11008;SDS011;5557;51.670;7.788;2022-12-18T16:14:54;15.10;;;13.70;;
11008;SDS011;5557;51.670;7.788;2022-12-18T16:17:22;13.63;;;12.53;;
11008;SDS011;5557;51.670;7.788;2022-12-18T16:19:49;16.70;;;15.13;;
11008;SDS011;5557;51.670;7.788;2022-12-18T16:22:20;9.27;;;8.77;;
11008;SDS011;5557;51.670;7.788;2022-12-18T16:24:51;16.47;;;14.67;;
11008;SDS011;5557;51.670;7.788;2022-12-18T16:27:19;17.20;;;15.57;;
11008;SDS011;5557;51.670;7.788;2022-12-18T16:29:48;19.90;;;14.90;;
11008;SDS011;5557;51.670;7.788;2022-12-18T16:32:17;15.80;;;14.20;;
11008;SDS011;5557;51.670;7.788;2022-12-18T16:34:47;11.50;;;10.60;;
11008;SDS011;5557;51.670;7.788;2022-12-18T16:37:17;10.77;;;9.83;;
11008;SDS011;5557;51.670;7.788;2022-12-18T16:39:44;18.53;;;16.20;;
11008;SDS011;5557;51.670;7.788;2022-12-18T16:42:16;17.63;;;14.27;;